Terminal Aerodrome Forecast
Issued by NWS

Home | Current Version | Previous Version | Text Only | Print | Product List | Glossary On
Versions: 1 2 3 4 5 6 7 8 9 10 11 12 13 14 15 16 17 18 19 20 21 22 23 24 25 26 27 28 29 30 31 32 33 34 35 36 37 38
000
FTAK31 PAFA 242301 AAB
TAFAFA
TAF AMD
PAFA 242301Z 2423/2524 21006KT P6SM VCSH FEW016 SCT035 OVC050
     FM250300 28012KT 6SM -SHSN BR BKN007 OVC015
     FM250600 28012KT 1 1/2SM -SHSN BR SCT003 OVC007=

USA.gov is the U.S. government's official web portal to all federal, state and local government web resources and services.